createdAt,value
2023-05-10T05:02:02.633Z,564.00
2023-05-10T05:03:02.641Z,596.00
2023-05-10T05:04:02.546Z,588.00
2023-05-10T05:05:02.475Z,604.00
2023-05-10T05:06:02.432Z,620.00
2023-05-10T05:07:02.435Z,640.00
2023-05-10T05:08:02.419Z,656.00
2023-05-10T05:09:02.423Z,652.00
2023-05-10T05:10:02.401Z,640.00
2023-05-10T05:11:02.389Z,656.00
2023-05-10T05:12:02.378Z,696.00
2023-05-10T05:13:07.416Z,744.00
2023-05-10T05:14:02.341Z,824.00
2023-05-10T05:15:02.355Z,888.00
2023-05-10T05:16:02.388Z,924.00
2023-05-10T05:17:02.329Z,984.00
2023-05-10T05:18:02.389Z,1052.00
2023-05-10T05:19:02.292Z,1096.00
2023-05-10T05:20:02.289Z,1100.00
2023-05-10T05:21:02.265Z,1124.00
2023-05-10T05:22:02.265Z,1132.00
2023-05-10T05:23:02.279Z,1136.00
2023-05-10T05:24:07.264Z,1160.00
2023-05-10T05:25:02.230Z,1124.00
2023-05-10T05:26:02.209Z,1140.00
2023-05-10T05:27:02.193Z,1152.00
2023-05-10T05:28:02.182Z,1100.00
2023-05-10T05:29:02.309Z,1108.00
2023-05-10T05:30:02.167Z,1136.00
2023-05-10T05:31:02.170Z,1120.00
2023-05-10T05:32:02.251Z,1056.00
2023-05-10T05:33:02.171Z,1040.00
2023-05-10T05:34:02.163Z,1040.00
2023-05-10T05:35:07.150Z,1076.00
2023-05-10T05:36:02.091Z,1000.00
2023-05-10T05:37:02.090Z,1040.00
2023-05-10T05:38:02.121Z,972.00
2023-05-10T05:39:02.074Z,1008.00
2023-05-10T05:40:02.055Z,1184.00
2023-05-10T05:41:02.050Z,1360.00
2023-05-10T05:42:02.057Z,1568.00
2023-05-10T05:43:02.025Z,1600.00
2023-05-10T05:44:02.003Z,1564.00
2023-05-10T05:45:02.008Z,1740.00
2023-05-10T05:46:07.113Z,1692.00
2023-05-10T05:47:01.993Z,1644.00
2023-05-10T05:48:02.029Z,1660.00
2023-05-10T05:49:01.948Z,1148.00
2023-05-10T05:50:01.969Z,1040.00
2023-05-10T05:51:01.926Z,1064.00
2023-05-10T05:52:01.922Z,824.00
2023-05-10T05:53:01.933Z,692.00
2023-05-10T05:54:01.888Z,676.00
2023-05-10T05:55:01.879Z,988.00
2023-05-10T05:56:01.861Z,952.00
2023-05-10T05:57:06.896Z,840.00
2023-05-10T05:58:01.842Z,920.00
2023-05-10T05:59:01.852Z,1088.00
2023-05-10T06:00:01.866Z,1460.00
2023-05-10T06:01:01.840Z,1380.00
2023-05-10T06:02:01.844Z,1512.00
2023-05-10T06:03:01.939Z,1464.00
2023-05-10T06:04:01.818Z,1656.00
2023-05-10T06:05:01.777Z,1612.00
2023-05-10T06:06:01.769Z,1660.00
2023-05-10T06:07:01.762Z,1760.00
2023-05-10T06:08:06.750Z,1832.00
2023-05-10T06:09:01.724Z,1760.00
2023-05-10T06:10:01.708Z,1628.00
2023-05-10T06:11:01.717Z,1432.00
2023-05-10T06:12:01.696Z,1372.00
2023-05-10T06:13:01.686Z,1280.00
2023-05-10T06:14:01.661Z,1400.00
2023-05-10T06:15:01.651Z,1632.00
2023-05-10T06:16:01.650Z,1536.00
2023-05-10T06:17:01.852Z,1740.00
2023-05-10T06:18:01.651Z,1672.00
2023-05-10T06:19:06.636Z,1840.00
2023-05-10T06:20:01.607Z,2176.00
2023-05-10T06:21:01.598Z,2188.00
2023-05-10T06:22:01.596Z,2164.00
2023-05-10T06:23:01.601Z,2288.00
2023-05-10T06:24:01.590Z,2220.00
2023-05-10T06:25:01.548Z,2196.00
2023-05-10T06:26:01.541Z,2328.00
2023-05-10T06:27:01.530Z,2420.00
2023-05-10T06:28:01.502Z,2440.00
2023-05-10T06:29:01.519Z,2360.00
2023-05-10T06:30:12.875Z,2372.00
2023-05-10T06:31:01.508Z,2460.00
2023-05-10T06:32:01.461Z,2508.00
2023-05-10T06:33:01.495Z,2548.00
2023-05-10T06:34:01.442Z,2528.00
2023-05-10T06:35:01.486Z,2572.00
2023-05-10T06:36:01.485Z,2680.00
2023-05-10T06:37:01.402Z,2820.00
2023-05-10T06:38:01.421Z,2940.00
2023-05-10T06:39:01.381Z,3036.00
2023-05-10T06:40:01.381Z,3092.00
2023-05-10T06:41:06.404Z,3072.00
2023-05-10T06:42:01.345Z,2976.00
2023-05-10T06:43:01.341Z,2956.00
2023-05-10T06:44:01.331Z,2988.00
2023-05-10T06:45:01.327Z,2988.00
2023-05-10T06:46:01.327Z,2996.00
2023-05-10T06:47:01.337Z,2904.00
2023-05-10T06:48:01.338Z,2764.00
2023-05-10T06:49:01.297Z,2648.00
2023-05-10T06:50:01.254Z,2636.00
2023-05-10T06:51:01.249Z,2724.00
2023-05-10T06:52:06.262Z,2788.00
2023-05-10T06:53:01.245Z,2848.00
2023-05-10T06:54:01.288Z,2800.00
2023-05-10T06:55:01.205Z,2748.00
2023-05-10T06:56:01.187Z,2788.00
2023-05-10T06:57:02.546Z,2796.00
2023-05-10T06:58:01.166Z,2912.00
2023-05-10T06:59:01.214Z,3056.00
2023-05-10T07:00:01.229Z,3228.00
2023-05-10T07:01:01.146Z,3340.00
2023-05-10T07:02:01.144Z,3532.00
2023-05-10T07:03:06.225Z,3720.00
2023-05-10T07:04:01.122Z,3896.00
2023-05-10T07:05:14.797Z,3996.00
2023-05-10T07:06:01.097Z,4096.00
2023-05-10T07:07:01.166Z,4204.00
2023-05-10T07:08:01.081Z,4280.00
2023-05-10T07:09:01.063Z,4308.00
2023-05-10T07:10:01.134Z,4524.00
2023-05-10T07:11:01.115Z,4532.00
2023-05-10T07:12:01.036Z,4388.00
2023-05-10T07:13:01.094Z,4204.00
2023-05-10T07:14:06.035Z,4168.00
2023-05-10T07:15:00.968Z,4072.00
2023-05-10T07:16:01.089Z,4132.00
2023-05-10T07:17:00.975Z,4152.00
2023-05-10T07:18:01.083Z,4080.00
2023-05-10T07:19:00.935Z,4152.00
2023-05-10T07:20:00.923Z,4380.00
2023-05-10T07:21:01.011Z,4592.00
2023-05-10T07:22:01.013Z,4696.00
2023-05-10T07:23:00.958Z,4808.00
2023-05-10T07:24:00.865Z,4948.00
2023-05-10T07:25:05.922Z,4928.00
2023-05-10T07:26:00.918Z,4824.00
2023-05-10T07:27:00.849Z,4876.00
2023-05-10T07:28:00.815Z,4932.00
2023-05-10T07:29:00.804Z,4992.00
2023-05-10T07:30:00.889Z,5084.00
2023-05-10T07:31:00.805Z,5120.00
2023-05-10T07:32:00.893Z,5004.00
2023-05-10T07:33:00.785Z,4924.00
2023-05-10T07:34:00.755Z,4928.00
2023-05-10T07:35:00.755Z,4960.00
2023-05-10T07:36:05.760Z,5012.00
2023-05-10T07:37:00.728Z,5016.00
2023-05-10T07:38:00.703Z,5060.00
2023-05-10T07:39:00.695Z,5080.00
2023-05-10T07:40:00.678Z,5120.00
2023-05-10T07:41:00.701Z,5180.00
2023-05-10T07:42:00.665Z,5160.00
2023-05-10T07:43:00.670Z,5196.00
2023-05-10T07:44:00.631Z,5276.00
2023-05-10T07:45:00.627Z,5376.00
2023-05-10T07:46:00.731Z,5400.00
2023-05-10T07:47:05.693Z,5412.00
2023-05-10T07:48:00.639Z,5484.00
2023-05-10T07:49:00.574Z,5720.00
2023-05-10T07:50:00.563Z,5776.00
2023-05-10T07:51:00.570Z,5756.00
2023-05-10T07:52:00.541Z,5668.00
2023-05-10T07:53:00.540Z,5544.00
2023-05-10T07:54:00.526Z,5656.00
2023-05-10T07:55:00.518Z,5620.00
2023-05-10T07:56:00.507Z,5432.00
2023-05-10T07:57:00.505Z,5060.00
2023-05-10T07:58:05.506Z,4492.00
2023-05-10T07:59:00.466Z,4228.00
2023-05-10T08:00:00.470Z,4660.00
2023-05-10T08:01:00.441Z,5012.00
2023-05-10T08:02:00.505Z,4708.00
2023-05-10T08:03:00.615Z,3456.00
2023-05-10T08:04:00.435Z,4124.00
2023-05-10T08:05:00.409Z,4624.00
2023-05-10T08:06:00.389Z,3916.00
2023-05-10T08:07:00.370Z,3280.00
2023-05-10T08:08:00.355Z,2696.00
2023-05-10T08:09:05.381Z,2336.00
2023-05-10T08:10:00.357Z,2216.00
2023-05-10T08:11:00.326Z,2868.00
2023-05-10T08:12:00.338Z,3252.00
2023-05-10T08:13:00.323Z,3724.00
2023-05-10T08:14:00.319Z,4244.00
2023-05-10T08:15:00.286Z,4612.00
2023-05-10T08:16:00.319Z,3896.00
2023-05-10T08:17:00.255Z,3480.00
2023-05-10T08:18:00.313Z,3452.00
2023-05-10T08:19:00.323Z,3952.00
2023-05-10T08:20:05.255Z,3952.00
2023-05-10T08:21:00.214Z,3464.00
2023-05-10T08:22:00.229Z,3012.00
2023-05-10T08:23:00.214Z,4120.00
2023-05-10T08:24:00.184Z,5340.00
2023-05-10T08:25:00.185Z,5968.00
2023-05-10T08:26:00.155Z,6144.00
2023-05-10T08:27:00.166Z,5712.00
2023-05-10T08:28:00.201Z,6232.00
2023-05-10T08:29:00.147Z,6272.00
2023-05-10T08:30:00.184Z,6020.00
2023-05-10T08:31:05.146Z,5216.00
2023-05-10T08:32:00.100Z,4164.00
2023-05-10T08:33:00.150Z,3236.00
2023-05-10T08:34:00.063Z,3128.00
2023-05-10T08:35:00.052Z,2996.00
2023-05-10T08:36:00.063Z,2660.00
2023-05-10T08:37:00.049Z,2420.00
2023-05-10T08:38:00.035Z,2272.00
2023-05-10T08:39:00.007Z,2468.00
2023-05-10T08:40:00.059Z,2844.00
2023-05-10T08:41:00.202Z,2248.00
2023-05-10T08:42:05.017Z,1588.00
2023-05-10T08:42:59.970Z,1084.00
2023-05-10T08:43:59.948Z,1160.00
2023-05-10T08:44:59.967Z,1324.00
2023-05-10T08:45:59.929Z,2112.00
2023-05-10T08:46:59.956Z,1976.00
2023-05-10T08:48:00.017Z,2304.00
2023-05-10T08:48:59.893Z,2600.00
2023-05-10T08:49:59.881Z,2688.00
2023-05-10T08:50:59.889Z,3208.00
2023-05-10T08:51:59.874Z,3732.00
2023-05-10T08:53:04.873Z,3560.00
2023-05-10T08:53:59.850Z,3592.00
2023-05-10T08:54:59.825Z,2808.00
2023-05-10T08:55:59.822Z,2100.00
2023-05-10T08:56:59.806Z,1524.00
2023-05-10T08:57:59.789Z,1112.00
2023-05-10T08:58:59.782Z,924.00
2023-05-10T08:59:59.776Z,912.00
2023-05-10T09:00:59.817Z,1348.00
2023-05-10T09:01:59.782Z,2028.00
2023-05-10T09:02:59.771Z,2344.00
2023-05-10T09:04:04.814Z,2024.00
2023-05-10T09:04:59.946Z,1552.00
2023-05-10T09:05:59.733Z,1020.00
2023-05-10T09:06:59.733Z,588.00
2023-05-10T09:07:59.683Z,436.00
2023-05-10T09:08:59.669Z,424.00
2023-05-10T09:09:59.685Z,460.00
2023-05-10T09:10:59.643Z,492.00
2023-05-10T09:11:59.652Z,500.00
2023-05-10T09:12:59.750Z,620.00
2023-05-10T09:13:59.613Z,892.00
2023-05-10T09:15:04.635Z,1076.00
2023-05-10T09:16:06.992Z,1132.00
2023-05-10T09:16:59.646Z,1344.00
2023-05-10T09:17:59.593Z,1520.00
2023-05-10T09:18:59.600Z,1628.00
2023-05-10T09:19:59.561Z,1808.00
2023-05-10T09:20:59.534Z,2012.00
2023-05-10T09:21:59.521Z,2292.00
2023-05-10T09:22:59.506Z,2676.00
2023-05-10T09:23:59.514Z,3148.00
2023-05-10T09:24:59.488Z,3636.00
2023-05-10T09:26:04.500Z,4312.00
2023-05-10T09:26:59.464Z,4988.00
2023-05-10T09:27:59.453Z,5688.00
2023-05-10T09:28:59.447Z,6232.00
2023-05-10T09:29:59.439Z,7012.00
2023-05-10T09:30:59.466Z,7636.00
2023-05-10T09:31:59.408Z,8184.00
2023-05-10T09:32:59.502Z,8528.00
2023-05-10T09:33:59.397Z,8732.00
2023-05-10T09:34:59.371Z,8276.00
2023-05-10T09:35:59.369Z,7556.00
2023-05-10T09:37:04.378Z,6728.00
2023-05-10T09:37:59.355Z,4964.00
2023-05-10T09:38:59.342Z,3756.00
2023-05-10T09:39:59.317Z,3148.00
2023-05-10T09:40:59.302Z,3284.00
2023-05-10T09:41:59.331Z,3828.00
2023-05-10T09:42:59.289Z,3476.00
2023-05-10T09:43:59.268Z,2296.00
2023-05-10T09:44:59.261Z,1524.00
2023-05-10T09:45:59.285Z,1144.00
2023-05-10T09:46:59.242Z,1344.00
2023-05-10T09:48:04.482Z,1776.00
2023-05-10T09:48:59.225Z,2100.00
2023-05-10T09:49:59.202Z,1860.00
2023-05-10T09:50:59.201Z,1720.00
2023-05-10T09:51:59.181Z,1804.00
2023-05-10T09:52:59.184Z,1900.00
2023-05-10T09:53:59.172Z,1852.00
2023-05-10T09:54:59.147Z,2076.00
2023-05-10T09:55:59.141Z,2352.00
2023-05-10T09:56:59.121Z,2660.00
2023-05-10T09:57:59.122Z,2772.00
2023-05-10T09:59:04.153Z,2760.00
2023-05-10T09:59:59.093Z,3008.00
2023-05-10T10:00:59.090Z,3176.00
2023-05-10T10:01:59.429Z,3496.00
2023-05-10T10:02:59.126Z,3860.00
2023-05-10T10:03:59.070Z,3948.00
2023-05-10T10:04:59.138Z,4220.00
2023-05-10T10:05:59.032Z,3924.00
2023-05-10T10:06:59.105Z,4180.00
2023-05-10T10:07:59.012Z,4840.00
2023-05-10T10:08:58.992Z,5484.00
2023-05-10T10:10:04.007Z,5816.00
2023-05-10T10:10:58.968Z,5748.00
2023-05-10T10:11:58.967Z,5444.00
2023-05-10T10:12:58.945Z,5224.00
2023-05-10T10:13:58.942Z,5312.00
2023-05-10T10:14:58.920Z,4848.00
2023-05-10T10:15:58.925Z,4364.00
2023-05-10T10:17:08.414Z,3808.00
2023-05-10T10:17:59.943Z,3876.00
2023-05-10T10:18:58.918Z,3928.00
2023-05-10T10:19:58.882Z,4372.00
2023-05-10T10:21:03.888Z,4888.00
2023-05-10T10:21:58.840Z,5296.00
2023-05-10T10:22:58.830Z,5252.00
2023-05-10T10:23:58.820Z,4004.00
2023-05-10T10:24:58.811Z,3876.00
2023-05-10T10:25:58.808Z,4420.00
2023-05-10T10:26:58.813Z,5352.00
2023-05-10T10:27:58.774Z,5112.00
2023-05-10T10:28:58.760Z,5124.00
2023-05-10T10:29:58.794Z,5668.00
2023-05-10T10:30:58.788Z,5640.00
2023-05-10T10:32:03.751Z,5220.00
2023-05-10T10:32:58.767Z,5276.00
2023-05-10T10:33:58.705Z,5912.00
2023-05-10T10:34:58.706Z,7016.00
2023-05-10T10:35:58.702Z,8532.00
2023-05-10T10:36:58.690Z,9980.00
2023-05-10T10:37:58.665Z,9544.00
2023-05-10T10:38:58.661Z,9984.00
2023-05-10T10:39:58.655Z,9152.00
2023-05-10T10:40:58.624Z,9260.00
2023-05-10T10:41:58.633Z,8940.00
2023-05-10T10:43:03.642Z,9972.00
2023-05-10T10:43:58.609Z,10112.00
2023-05-10T10:44:58.607Z,10216.00
2023-05-10T10:45:58.570Z,10040.00
2023-05-10T10:46:58.582Z,9828.00
2023-05-10T10:47:58.579Z,10256.00
2023-05-10T10:48:58.605Z,10500.00
2023-05-10T10:49:58.533Z,11380.00
2023-05-10T10:50:58.527Z,13232.00
2023-05-10T10:51:58.523Z,22688.00
2023-05-10T10:52:58.548Z,20640.00
2023-05-10T10:54:03.508Z,22528.00
2023-05-10T10:54:58.468Z,25664.00
2023-05-10T10:55:58.455Z,23328.00
2023-05-10T10:56:58.443Z,22272.00
2023-05-10T10:57:58.444Z,36352.00
2023-05-10T10:58:58.432Z,24800.00
2023-05-10T10:59:58.406Z,21632.00
2023-05-10T11:00:58.411Z,22752.00
2023-05-10T11:01:58.386Z,20448.00
2023-05-10T11:02:58.401Z,35392.00
2023-05-10T11:03:58.423Z,30688.00
2023-05-10T11:05:03.371Z,20224.00
2023-05-10T11:05:58.339Z,18144.00
2023-05-10T11:06:58.331Z,17824.00
2023-05-10T11:07:58.350Z,15020.00
2023-05-10T11:08:58.306Z,15616.00
2023-05-10T11:09:58.296Z,10608.00
2023-05-10T11:10:58.281Z,9920.00
2023-05-10T11:11:58.273Z,12212.00
2023-05-10T11:12:58.277Z,49760.00
2023-05-10T11:13:58.251Z,24448.00
2023-05-10T11:14:58.242Z,11572.00
2023-05-10T11:16:03.245Z,10156.00
2023-05-10T11:16:58.282Z,26048.00
2023-05-10T11:17:58.235Z,11176.00
2023-05-10T11:18:58.219Z,9668.00
2023-05-10T11:19:58.176Z,11836.00
2023-05-10T11:20:58.168Z,12372.00
2023-05-10T11:21:58.166Z,60448.00
2023-05-10T11:22:58.170Z,60512.00
2023-05-10T11:23:58.160Z,21344.00
2023-05-10T11:24:58.137Z,60992.00
2023-05-10T11:25:58.127Z,20512.00
2023-05-10T11:27:03.141Z,22112.00
2023-05-10T11:27:58.089Z,19232.00
2023-05-10T11:28:58.076Z,18432.00
2023-05-10T11:29:58.068Z,18432.00
2023-05-10T11:30:58.098Z,19232.00
2023-05-10T11:31:58.066Z,16960.00
2023-05-10T11:32:58.045Z,33568.00
2023-05-10T11:33:58.023Z,15744.00
2023-05-10T11:34:58.010Z,14532.00
2023-05-10T11:35:58.008Z,14264.00
2023-05-10T11:36:57.998Z,21632.00
2023-05-10T11:38:03.005Z,13264.00
2023-05-10T11:38:57.966Z,13320.00
2023-05-10T11:39:57.974Z,17696.00
2023-05-10T11:40:57.953Z,15472.00
2023-05-10T11:41:57.933Z,13156.00
2023-05-10T11:42:57.921Z,13096.00
2023-05-10T11:43:57.915Z,11980.00
2023-05-10T11:44:57.896Z,13548.00
2023-05-10T11:45:57.912Z,15152.00
2023-05-10T11:46:57.882Z,16608.00
2023-05-10T11:47:57.886Z,15016.00
2023-05-10T11:49:03.050Z,13584.00
2023-05-10T11:49:57.853Z,16416.00
2023-05-10T11:50:57.845Z,17184.00
2023-05-10T11:51:57.835Z,15704.00
2023-05-10T11:52:57.811Z,17920.00
2023-05-10T11:53:57.832Z,9948.00
2023-05-10T11:54:57.799Z,15392.00
2023-05-10T11:55:57.809Z,9036.00
2023-05-10T11:56:57.762Z,6592.00
2023-05-10T11:57:57.765Z,5080.00
2023-05-10T11:58:57.759Z,5568.00
2023-05-10T12:00:02.763Z,7908.00
2023-05-10T12:00:57.739Z,7064.00
2023-05-10T12:01:57.716Z,6140.00
2023-05-10T12:02:57.748Z,6736.00
2023-05-10T12:03:57.948Z,7920.00
2023-05-10T12:04:57.733Z,10008.00
2023-05-10T12:05:57.662Z,12904.00
2023-05-10T12:06:57.646Z,20576.00
2023-05-10T12:07:57.646Z,9936.00
2023-05-10T12:08:57.633Z,8340.00
2023-05-10T12:09:57.623Z,8380.00
2023-05-10T12:11:02.664Z,8160.00
2023-05-10T12:11:57.594Z,8100.00
2023-05-10T12:12:57.576Z,8388.00
2023-05-10T12:13:57.824Z,8820.00
2023-05-10T12:14:57.558Z,8940.00
2023-05-10T12:15:57.644Z,10228.00
2023-05-10T12:16:57.532Z,15464.00
2023-05-10T12:17:57.574Z,18944.00
2023-05-10T12:18:57.664Z,35232.00
2023-05-10T12:19:57.506Z,23680.00
2023-05-10T12:20:57.499Z,23456.00
2023-05-10T12:22:02.499Z,20704.00
2023-05-10T12:22:59.659Z,11272.00
2023-05-10T12:23:57.468Z,11204.00
2023-05-10T12:24:57.444Z,15772.00
2023-05-10T12:25:57.432Z,14420.00
2023-05-10T12:26:57.440Z,11220.00
2023-05-10T12:27:57.422Z,9688.00
2023-05-10T12:28:57.415Z,9744.00
2023-05-10T12:29:57.388Z,9800.00
2023-05-10T12:30:57.375Z,9292.00
2023-05-10T12:31:57.407Z,9368.00
2023-05-10T12:33:02.426Z,11360.00
2023-05-10T12:33:57.347Z,11864.00
2023-05-10T12:34:57.331Z,12300.00
2023-05-10T12:35:57.320Z,11392.00
2023-05-10T12:36:57.326Z,10868.00
2023-05-10T12:37:57.309Z,10936.00
2023-05-10T12:38:57.293Z,11124.00
2023-05-10T12:39:57.283Z,10856.00
2023-05-10T12:40:57.317Z,11104.00
2023-05-10T12:41:57.257Z,10792.00
2023-05-10T12:42:57.304Z,10672.00
2023-05-10T12:44:02.261Z,9328.00
2023-05-10T12:44:57.230Z,9628.00
2023-05-10T12:45:57.234Z,10252.00
2023-05-10T12:46:57.205Z,9352.00
2023-05-10T12:47:57.250Z,9448.00
2023-05-10T12:49:07.673Z,10232.00
2023-05-10T12:49:58.167Z,10028.00
2023-05-10T12:50:57.163Z,9156.00
2023-05-10T12:51:57.148Z,8764.00
2023-05-10T12:52:57.153Z,8540.00
2023-05-10T12:53:57.141Z,8420.00
2023-05-10T12:55:02.128Z,8780.00
2023-05-10T12:55:57.103Z,9428.00
2023-05-10T12:56:57.099Z,8480.00
2023-05-10T12:57:57.088Z,8696.00
2023-05-10T12:58:57.131Z,9884.00
2023-05-10T12:59:57.055Z,9428.00
2023-05-10T13:00:57.049Z,9312.00
2023-05-10T13:01:57.039Z,9080.00
2023-05-10T13:02:57.025Z,9152.00
2023-05-10T13:03:57.003Z,8676.00
2023-05-10T13:04:57.009Z,8548.00
2023-05-10T13:06:02.045Z,8220.00
2023-05-10T13:06:56.976Z,8304.00
2023-05-10T13:07:56.974Z,7964.00
2023-05-10T13:08:56.962Z,7916.00
2023-05-10T13:09:56.947Z,7008.00
2023-05-10T13:10:56.922Z,7168.00
2023-05-10T13:11:56.926Z,7644.00
2023-05-10T13:12:56.903Z,7408.00
2023-05-10T13:13:56.890Z,7044.00
2023-05-10T13:14:56.912Z,6760.00
2023-05-10T13:15:56.891Z,6660.00
2023-05-10T13:17:01.931Z,6704.00
2023-05-10T13:17:56.903Z,6572.00
2023-05-10T13:18:56.990Z,6704.00
2023-05-10T13:19:56.821Z,6860.00
2023-05-10T13:20:56.844Z,7160.00
2023-05-10T13:21:56.806Z,7228.00
2023-05-10T13:22:56.793Z,7024.00
2023-05-10T13:23:56.777Z,6708.00
2023-05-10T13:24:56.768Z,6460.00
2023-05-10T13:25:56.761Z,6500.00
2023-05-10T13:26:56.746Z,6188.00
2023-05-10T13:28:01.751Z,6132.00
2023-05-10T13:28:56.750Z,6352.00
2023-05-10T13:29:56.718Z,6192.00
2023-05-10T13:30:56.747Z,6268.00
2023-05-10T13:31:56.811Z,6552.00
2023-05-10T13:32:56.726Z,6004.00
2023-05-10T13:33:56.677Z,5960.00
2023-05-10T13:34:56.669Z,6752.00
2023-05-10T13:35:56.637Z,7268.00
2023-05-10T13:36:56.651Z,6812.00
2023-05-10T13:37:56.617Z,6748.00
2023-05-10T13:39:01.650Z,6600.00
2023-05-10T13:39:56.608Z,6752.00
2023-05-10T13:40:56.595Z,6712.00
2023-05-10T13:41:56.573Z,6784.00
2023-05-10T13:42:56.574Z,6644.00
2023-05-10T13:43:56.566Z,6496.00
2023-05-10T13:44:56.560Z,6460.00
2023-05-10T13:45:56.586Z,6352.00
2023-05-10T13:46:56.540Z,6352.00
2023-05-10T13:47:56.533Z,6416.00
2023-05-10T13:48:56.514Z,6344.00
2023-05-10T13:50:01.540Z,6500.00
2023-05-10T13:50:56.482Z,6756.00
2023-05-10T13:51:56.462Z,6592.00
2023-05-10T13:52:56.455Z,6172.00
2023-05-10T13:53:56.455Z,6240.00
2023-05-10T13:54:56.432Z,6108.00
2023-05-10T13:55:56.419Z,6396.00
2023-05-10T13:56:56.413Z,6500.00
2023-05-10T13:57:56.414Z,6472.00
2023-05-10T13:58:56.397Z,6416.00
2023-05-10T13:59:57.586Z,6076.00
2023-05-10T14:01:01.388Z,5812.00
2023-05-10T14:01:56.429Z,6288.00
2023-05-10T14:02:56.475Z,5972.00
2023-05-10T14:03:56.415Z,6256.00
2023-05-10T14:04:56.318Z,6104.00
2023-05-10T14:05:56.304Z,6164.00
2023-05-10T14:06:56.294Z,6156.00
2023-05-10T14:07:56.304Z,6076.00
2023-05-10T14:08:56.288Z,5716.00
2023-05-10T14:09:56.259Z,5728.00
2023-05-10T14:10:56.249Z,6476.00
2023-05-10T14:12:01.274Z,6096.00
2023-05-10T14:12:56.226Z,6116.00
2023-05-10T14:13:56.213Z,5992.00
2023-05-10T14:14:56.219Z,6152.00
2023-05-10T14:15:56.216Z,6256.00
2023-05-10T14:16:56.191Z,5900.00
2023-05-10T14:17:56.193Z,5820.00
2023-05-10T14:18:56.197Z,5764.00
2023-05-10T14:19:56.145Z,5712.00
2023-05-10T14:20:56.153Z,5516.00
2023-05-10T14:21:56.132Z,5376.00
2023-05-10T14:23:01.140Z,5192.00
2023-05-10T14:23:56.100Z,5032.00
2023-05-10T14:24:56.090Z,5084.00
2023-05-10T14:25:56.087Z,5132.00
2023-05-10T14:26:56.081Z,5104.00
2023-05-10T14:27:56.058Z,4908.00
2023-05-10T14:28:56.093Z,4880.00
2023-05-10T14:29:56.058Z,4912.00
2023-05-10T14:30:56.037Z,4840.00
2023-05-10T14:31:56.063Z,5076.00
2023-05-10T14:32:56.021Z,5048.00
2023-05-10T14:34:01.026Z,5016.00
2023-05-10T14:34:55.988Z,4960.00
2023-05-10T14:35:55.981Z,5000.00
2023-05-10T14:36:55.953Z,5128.00
2023-05-10T14:37:55.959Z,5204.00
2023-05-10T14:38:55.934Z,5272.00
2023-05-10T14:39:55.938Z,5164.00
2023-05-10T14:40:55.909Z,5184.00
2023-05-10T14:41:55.893Z,5104.00
2023-05-10T14:42:55.890Z,5076.00
2023-05-10T14:43:55.871Z,5332.00
2023-05-10T14:45:00.892Z,5180.00
2023-05-10T14:45:55.889Z,5176.00
2023-05-10T14:46:55.847Z,5132.00
2023-05-10T14:47:55.859Z,5024.00
2023-05-10T14:48:55.812Z,5072.00
2023-05-10T14:49:55.829Z,5116.00
2023-05-10T14:50:55.792Z,5160.00
2023-05-10T14:51:55.780Z,5224.00
2023-05-10T14:52:55.770Z,5160.00
2023-05-10T14:53:55.761Z,5128.00
2023-05-10T14:54:55.748Z,5180.00
2023-05-10T14:56:00.754Z,5008.00
2023-05-10T14:56:55.717Z,5080.00
2023-05-10T14:57:55.711Z,5000.00
2023-05-10T14:58:55.711Z,4908.00
2023-05-10T14:59:55.696Z,4800.00
2023-05-10T15:00:55.739Z,4800.00
2023-05-10T15:01:55.666Z,4744.00
2023-05-10T15:02:55.741Z,4744.00
2023-05-10T15:03:55.704Z,4776.00
2023-05-10T15:04:55.638Z,4852.00
2023-05-10T15:05:55.652Z,4916.00
2023-05-10T15:07:00.627Z,4728.00
2023-05-10T15:07:55.600Z,4748.00
2023-05-10T15:08:55.595Z,4720.00
2023-05-10T15:09:55.573Z,4820.00
2023-05-10T15:10:55.560Z,4880.00
2023-05-10T15:11:55.545Z,4848.00
2023-05-10T15:12:55.540Z,4840.00
2023-05-10T15:13:55.531Z,4856.00
2023-05-10T15:14:55.516Z,4896.00
2023-05-10T15:15:55.520Z,4884.00
2023-05-10T15:16:55.507Z,4928.00
2023-05-10T15:18:00.557Z,4832.00
2023-05-10T15:18:55.551Z,4728.00
2023-05-10T15:19:55.454Z,4716.00
2023-05-10T15:20:55.447Z,4708.00
2023-05-10T15:21:55.461Z,4676.00
2023-05-10T15:22:55.440Z,4628.00
2023-05-10T15:23:55.410Z,4716.00
2023-05-10T15:24:55.400Z,4636.00
2023-05-10T15:25:55.390Z,4652.00
2023-05-10T15:26:55.378Z,4536.00
2023-05-10T15:27:55.371Z,4528.00
2023-05-10T15:29:00.428Z,4552.00
2023-05-10T15:29:55.339Z,4516.00
2023-05-10T15:30:55.351Z,4424.00
2023-05-10T15:31:55.407Z,4416.00
2023-05-10T15:32:55.391Z,4396.00
2023-05-10T15:33:55.297Z,4368.00
2023-05-10T15:34:55.305Z,4308.00
2023-05-10T15:35:55.293Z,4588.00
2023-05-10T15:36:55.278Z,4532.00
2023-05-10T15:37:55.279Z,4552.00
2023-05-10T15:38:55.246Z,4544.00
2023-05-10T15:40:00.260Z,4540.00
2023-05-10T15:40:55.225Z,4592.00
2023-05-10T15:41:55.215Z,4536.00
2023-05-10T15:42:55.198Z,4592.00
2023-05-10T15:43:55.210Z,4176.00
2023-05-10T15:44:55.173Z,3948.00
2023-05-10T15:45:55.172Z,3812.00
2023-05-10T15:46:55.248Z,3644.00
2023-05-10T15:47:55.199Z,3468.00
2023-05-10T15:48:55.142Z,3316.00
2023-05-10T15:49:55.114Z,3180.00
2023-05-10T15:51:00.160Z,3056.00
2023-05-10T15:51:55.107Z,3052.00
2023-05-10T15:52:55.096Z,3080.00
2023-05-10T15:54:06.469Z,3084.00
2023-05-10T15:54:56.074Z,3048.00
2023-05-10T15:55:55.065Z,3044.00
2023-05-10T15:56:55.051Z,2884.00
2023-05-10T15:57:55.034Z,3152.00
2023-05-10T15:58:55.024Z,2820.00
2023-05-10T15:59:55.007Z,2548.00
2023-05-10T16:00:55.033Z,2636.00
2023-05-10T16:02:00.045Z,2680.00
2023-05-10T16:02:55.124Z,2924.00
2023-05-10T16:03:54.977Z,2868.00
2023-05-10T16:04:54.977Z,2744.00
2023-05-10T16:05:54.950Z,2756.00
2023-05-10T16:06:54.942Z,2800.00
2023-05-10T16:07:54.918Z,2932.00
2023-05-10T16:08:54.909Z,2788.00
2023-05-10T16:09:54.927Z,2784.00
2023-05-10T16:10:54.890Z,2764.00
2023-05-10T16:11:54.913Z,2568.00
2023-05-10T16:12:59.881Z,2596.00
2023-05-10T16:13:54.857Z,2616.00
2023-05-10T16:14:54.856Z,2616.00
2023-05-10T16:15:54.881Z,2740.00
2023-05-10T16:16:54.914Z,2892.00
2023-05-10T16:17:54.972Z,2828.00
2023-05-10T16:18:54.879Z,2808.00
2023-05-10T16:19:54.897Z,2676.00
2023-05-10T16:20:54.770Z,2516.00
2023-05-10T16:21:54.768Z,2388.00
2023-05-10T16:22:54.752Z,2352.00
2023-05-10T16:23:59.779Z,2320.00
2023-05-10T16:24:54.758Z,2288.00
2023-05-10T16:25:54.736Z,2340.00
2023-05-10T16:26:54.700Z,2468.00
2023-05-10T16:27:54.691Z,2352.00
2023-05-10T16:28:54.699Z,2268.00
2023-05-10T16:29:54.682Z,2232.00
2023-05-10T16:30:54.685Z,2176.00
2023-05-10T16:31:54.672Z,2096.00
2023-05-10T16:32:54.640Z,2040.00
2023-05-10T16:33:54.659Z,2008.00
2023-05-10T16:34:59.631Z,1984.00
2023-05-10T16:35:54.615Z,2008.00
2023-05-10T16:36:54.609Z,2024.00
2023-05-10T16:37:54.594Z,1980.00
2023-05-10T16:38:54.590Z,1932.00
2023-05-10T16:39:54.581Z,1972.00
2023-05-10T16:40:54.542Z,1980.00
2023-05-10T16:41:54.550Z,1968.00
2023-05-10T16:42:54.527Z,1980.00
2023-05-10T16:43:54.507Z,1956.00
2023-05-10T16:44:54.500Z,1908.00
2023-05-10T16:45:59.537Z,1816.00
2023-05-10T16:46:54.469Z,1812.00
2023-05-10T16:47:54.514Z,1900.00
2023-05-10T16:48:54.456Z,1920.00
2023-05-10T16:49:54.442Z,1784.00
2023-05-10T16:50:54.437Z,1824.00
2023-05-10T16:51:54.444Z,1812.00
2023-05-10T16:52:54.408Z,1880.00
2023-05-10T16:53:54.402Z,1848.00
2023-05-10T16:54:54.378Z,1800.00
2023-05-10T16:55:54.369Z,1784.00
2023-05-10T16:56:59.408Z,1764.00
2023-05-10T16:57:54.356Z,1744.00
2023-05-10T16:58:54.348Z,1776.00
2023-05-10T16:59:54.331Z,1748.00
2023-05-10T17:00:54.310Z,1756.00
2023-05-10T17:01:54.374Z,1736.00
2023-05-10T17:02:54.347Z,1692.00
2023-05-10T17:03:54.344Z,1660.00
2023-05-10T17:04:54.273Z,1644.00